Flight Track Log - Related Links

Times and Time Zones

All times are in EDT time to prevent confusion due to time zone crossing. See the ELO229 flight status page for this flight to view local times or setup timezone preferences in your user account.

Time Position Orientation Groundspeed Altitude Reporting Facility
EDT Latitude Longitude Course Direction KTS MPH feet Rate Location/Type
Wed 12:40:32 PM 50.0200 19.6845 228° Southwest  Level Estimated
Wed 12:41:32 PM 49.9823 19.6192 228° Southwest  Level Estimated
Wed 12:42:32 PM 49.9445 19.5541 228° Southwest  Level Estimated
Wed 12:43:32 PM 49.9068 19.4890 228° Southwest  Level Estimated
Wed 12:44:32 PM 49.8690 19.4240 228° Southwest  Level Estimated
Wed 12:45:32 PM 49.8311 19.3591 228° Southwest  Level Estimated
Wed 12:46:32 PM 49.7932 19.2944 228° Southwest  Level Estimated
Wed 12:47:32 PM 49.7553 19.2297 228° Southwest  Level Estimated
Wed 12:48:32 PM 49.7173 19.1651 228° Southwest  Level Estimated
Wed 12:49:32 PM 49.6794 19.1006 228° Southwest  Level Estimated
Wed 12:50:32 PM 49.6413 19.0363 228° Southwest  Level Estimated
Wed 12:51:32 PM 49.6033 18.9720 228° Southwest  Level Estimated
Wed 12:52:32 PM 49.5652 18.9078 227° Southwest  Level Estimated
Wed 12:53:32 PM 49.5270 18.8438 227° Southwest  Level Estimated
Wed 12:54:32 PM 49.4888 18.7798 227° Southwest  Level Estimated
Wed 12:55:32 PM 49.4506 18.7159 227° Southwest  Level Estimated
Wed 12:56:32 PM 49.4124 18.6521 227° Southwest  Level Estimated
Wed 12:57:32 PM 49.3741 18.5885 227° Southwest  Level Estimated
Wed 12:58:32 PM 49.3358 18.5249 227° Southwest  Level Estimated
Wed 12:59:32 PM 49.2975 18.4614 227° Southwest  Level Estimated
Wed 01:00:32 PM 49.2591 18.3981 227° Southwest  Level Estimated
Wed 01:01:32 PM 49.2207 18.3348 227° Southwest  Level Estimated
Wed 01:02:32 PM 49.1822 18.2716 227° Southwest  Level Estimated
Wed 01:03:32 PM 49.1437 18.2085 227° Southwest  Level Estimated
Wed 01:04:32 PM 49.1052 18.1455 227° Southwest  Level Estimated
Wed 01:05:32 PM 49.0667 18.0827 227° Southwest  Level Estimated
Wed 01:06:32 PM 49.0281 18.0199 227° Southwest  Level Estimated
Wed 01:07:32 PM 48.9895 17.9572 227° Southwest  Level Estimated
Wed 01:08:32 PM 48.9508 17.8946 227° Southwest  Level Estimated
Wed 01:09:32 PM 48.9121 17.8321 227° Southwest  Level Estimated
Wed 01:10:32 PM 48.8734 17.7697 227° Southwest  Level Estimated
Wed 01:11:32 PM 48.8346 17.7074 227° Southwest  Level Estimated
Wed 01:12:32 PM 48.7959 17.6452 227° Southwest  Level Estimated
Wed 01:13:32 PM 48.7570 17.5831 226° Southwest  Level Estimated
Wed 01:14:32 PM 48.7182 17.5211 226° Southwest  Level Estimated
Wed 01:15:32 PM 48.6793 17.4591 226° Southwest  Level Estimated
Wed 01:16:32 PM 48.6404 17.3973 226° Southwest  Level Estimated
Wed 01:17:32 PM 48.6014 17.3356 226° Southwest  Level Estimated
Wed 01:18:32 PM 48.5624 17.2740 226° Southwest  Level Estimated
Wed 01:19:32 PM 48.5234 17.2124 226° Southwest  Level Estimated
Wed 01:20:32 PM 48.4843 17.1510 226° Southwest  Level Estimated
Wed 01:21:32 PM 48.4453 17.0896 226° Southwest  Level Estimated
Wed 01:22:32 PM 48.4061 17.0284 226° Southwest  Level Estimated
Wed 01:23:32 PM 48.3670 16.9672 226° Southwest  Level Estimated
Wed 01:24:32 PM 48.3278 16.9062 226° Southwest  Level Estimated
Wed 01:25:32 PM 48.2886 16.8452 226° Southwest  Level Estimated
Wed 01:26:32 PM 48.2493 16.7843 226° Southwest  Level Estimated
Wed 01:27:32 PM 48.2101 16.7235 226° Southwest  Level Estimated
Wed 01:28:32 PM 48.1707 16.6628 226° Southwest  Level Estimated
Wed 01:29:32 PM 48.1314 16.6022 226° Southwest  Level Estimated
Wed 01:30:32 PM 48.0920 16.5417 46° Northeast  Level Estimated
Wed 01:31:32 PM 48.1314 16.6022 226° Southwest  Level Estimated
Wed 01:32:32 PM 48.0920 16.5417 46° Northeast  Level Estimated
Wed 01:33:32 PM 48.1314 16.6022 226° Southwest  Level Estimated
Wed 01:34:32 PM 48.0920 16.5417 46° Northeast  Level Estimated
Wed 01:35:32 PM 48.1314 16.6022 226° Southwest  Level Estimated
Wed 01:36:32 PM 48.0920 16.5417 46° Northeast  Level Estimated
Wed 01:37:32 PM 48.1314 16.6022 226° Southwest  Level Estimated
Wed 01:38:32 PM 48.0920 16.5417 46° Northeast  Level Estimated
Wed 01:39:32 PM 48.1314 16.6022 46° Northeast  Level Estimated

Login

Don't have an account? Register now (free) for customized features, flight alerts, and more!